Terminal Aerodrome Forecast
Issued by NWS Dodge City, KS

Home | Current Version | Previous Version | Text Only | Print | Product List | Glossary On
Versions: 1 2 3 4 5 6 7 8 9 10 11 12 13 14 15 16 17 18 19 20 21 22 23 24
624
FTUS43 KDDC 221602 AAB
TAFDDC
TAF AMD
KDDC 221602Z 2216/2312 16017KT P6SM OVC008
     FM222000 17016G23KT P6SM OVC015=

USA.gov is the U.S. government's official web portal to all federal, state and local government web resources and services.